createdAt,value
2023-05-25T00:02:09.290Z,19893.09
2023-05-25T00:04:38.470Z,19878.88
2023-05-25T00:07:06.771Z,19878.88
2023-05-25T00:09:36.362Z,19870.75
2023-05-25T00:12:04.840Z,19866.69
2023-05-25T00:14:33.020Z,19852.44
2023-05-25T00:17:03.984Z,19832.13
2023-05-25T00:19:34.003Z,19858.56
2023-05-25T00:22:03.048Z,19866.69
2023-05-25T00:24:31.801Z,19870.75
2023-05-25T00:27:00.536Z,19848.38
2023-05-25T00:29:28.966Z,19854.50
2023-05-25T00:31:57.229Z,19856.53
2023-05-25T00:34:25.590Z,19834.16
2023-05-25T00:36:55.356Z,19797.59
2023-05-25T00:39:23.525Z,19856.53
2023-05-25T00:41:51.869Z,19809.78
2023-05-25T00:44:21.676Z,19832.13
2023-05-25T00:46:52.448Z,19826.03
2023-05-25T00:49:23.521Z,19811.81
2023-05-25T00:51:54.404Z,19834.16
2023-05-25T00:54:22.916Z,19801.66
2023-05-25T00:56:57.241Z,19811.81
2023-05-25T00:59:35.689Z,19801.66
2023-05-25T01:02:06.969Z,19809.78
2023-05-25T01:04:38.105Z,19781.31
2023-05-25T01:07:12.848Z,19805.72
2023-05-25T01:09:44.684Z,19775.22
2023-05-25T01:12:15.980Z,19781.31
2023-05-25T01:14:46.734Z,19779.28
2023-05-25T01:17:16.334Z,19761.00
2023-05-25T01:19:49.705Z,19754.91
2023-05-25T01:22:38.174Z,19801.66
2023-05-25T01:25:14.642Z,19761.00
2023-05-25T01:27:49.709Z,19765.06
2023-05-25T01:30:23.287Z,19775.22
2023-05-25T01:32:54.319Z,19811.81
2023-05-25T01:35:24.128Z,19783.34
2023-05-25T01:37:53.971Z,19797.59
2023-05-25T01:40:22.257Z,19746.78
2023-05-25T01:42:50.371Z,19769.13
2023-05-25T01:45:18.570Z,19752.88
2023-05-25T01:47:58.547Z,19761.00
2023-05-25T01:50:52.332Z,19742.72
2023-05-25T01:53:27.656Z,19730.50
2023-05-25T01:56:01.683Z,19785.38
2023-05-25T01:58:36.539Z,19767.09
2023-05-25T02:01:05.161Z,19738.66
2023-05-25T02:03:33.455Z,19736.59
2023-05-25T02:06:01.825Z,19767.09
2023-05-25T02:08:31.438Z,19777.25
2023-05-25T02:10:59.566Z,19746.78
2023-05-25T02:13:27.875Z,19736.59
2023-05-25T02:15:56.348Z,19718.31
2023-05-25T02:18:24.754Z,19714.25
2023-05-25T02:20:53.269Z,19704.09
2023-05-25T02:23:21.709Z,19756.94
2023-05-25T02:25:51.678Z,19738.66
2023-05-25T02:28:19.993Z,19740.69
2023-05-25T02:30:48.197Z,19726.44
2023-05-25T02:33:16.413Z,19724.41
2023-05-25T02:35:45.034Z,19728.47
2023-05-25T02:38:13.433Z,19704.09
2023-05-25T02:40:42.665Z,19712.22
2023-05-25T02:43:12.157Z,19712.22
2023-05-25T02:45:40.339Z,19732.53
2023-05-25T02:48:08.550Z,19710.19
2023-05-25T02:50:37.022Z,19700.03
2023-05-25T02:53:05.248Z,19700.03
2023-05-25T02:55:33.413Z,19722.38
2023-05-25T02:58:01.609Z,19720.34
2023-05-25T03:00:31.907Z,19708.16
2023-05-25T03:03:00.212Z,19691.91
2023-05-25T03:05:28.374Z,19683.78
2023-05-25T03:07:56.536Z,19667.50
2023-05-25T03:10:24.649Z,19675.63
2023-05-25T03:12:52.757Z,19687.84
2023-05-25T03:15:20.991Z,19700.03
2023-05-25T03:17:50.889Z,19681.75
2023-05-25T03:20:20.807Z,19683.78
2023-05-25T03:22:48.956Z,19708.16
2023-05-25T03:25:17.268Z,19667.50
2023-05-25T03:27:45.449Z,19679.72
2023-05-25T03:30:15.004Z,19651.25
2023-05-25T03:32:43.261Z,19698.00
2023-05-25T03:35:12.899Z,19704.09
2023-05-25T03:37:41.058Z,19667.50
2023-05-25T03:40:11.513Z,19643.13
2023-05-25T03:42:40.015Z,19671.56
2023-05-25T03:45:10.017Z,19683.78
2023-05-25T03:47:38.664Z,19730.50
2023-05-25T03:50:08.755Z,19722.38
2023-05-25T03:52:38.320Z,19728.47
2023-05-25T03:55:07.385Z,19744.75
2023-05-25T03:57:35.674Z,19718.31
2023-05-25T04:00:04.720Z,19702.06
2023-05-25T04:02:34.672Z,19722.38
2023-05-25T04:05:03.028Z,19726.44
2023-05-25T04:07:31.249Z,19767.09
2023-05-25T04:10:00.963Z,19748.81
2023-05-25T04:12:29.169Z,19736.59
2023-05-25T04:14:57.429Z,19761.00
2023-05-25T04:17:25.731Z,19761.00
2023-05-25T04:19:54.213Z,19761.00
2023-05-25T04:22:22.395Z,19828.06
2023-05-25T04:24:50.623Z,19809.78
2023-05-25T04:27:20.961Z,19828.06
2023-05-25T04:29:50.428Z,19840.25
2023-05-25T04:32:18.826Z,19838.22
2023-05-25T04:34:48.211Z,19880.91
2023-05-25T04:37:17.200Z,19868.72
2023-05-25T04:39:45.390Z,19889.03
2023-05-25T04:42:13.546Z,19893.09
2023-05-25T04:44:43.169Z,19929.69
2023-05-25T04:47:12.167Z,19903.25
2023-05-25T04:49:40.314Z,19929.69
2023-05-25T04:52:08.458Z,20132.94
2023-05-25T04:54:37.410Z,20358.56
2023-05-25T04:57:06.296Z,20482.53
2023-05-25T04:59:34.506Z,20649.22
2023-05-25T05:02:04.053Z,20724.44
2023-05-25T05:04:32.226Z,20907.41
2023-05-25T05:07:00.920Z,20952.13
2023-05-25T05:09:29.054Z,21090.38
2023-05-25T05:11:57.245Z,21084.28
2023-05-25T05:14:25.425Z,21161.53
2023-05-25T05:16:53.524Z,21098.50
2023-05-25T05:19:23.511Z,21057.84
2023-05-25T05:21:51.636Z,21025.31
2023-05-25T05:24:19.732Z,21009.03
2023-05-25T05:26:56.298Z,21017.19
2023-05-25T05:29:26.695Z,20883.00
2023-05-25T05:31:55.383Z,20763.06
2023-05-25T05:34:24.906Z,20635.00
2023-05-25T05:36:58.170Z,20610.59
2023-05-25T05:39:28.206Z,20519.13
2023-05-25T05:41:57.056Z,20468.31
2023-05-25T05:44:28.819Z,20468.31
2023-05-25T05:47:00.833Z,20450.03
2023-05-25T05:49:31.812Z,20517.09
2023-05-25T05:52:00.377Z,20470.34
2023-05-25T05:54:28.536Z,20517.09
2023-05-25T05:56:56.781Z,20482.53
2023-05-25T05:59:24.925Z,20545.56
2023-05-25T06:01:53.080Z,20513.03
2023-05-25T06:04:25.188Z,20559.78
2023-05-25T06:06:54.626Z,20580.13
2023-05-25T06:09:22.764Z,20639.06
2023-05-25T06:11:51.461Z,20602.47
2023-05-25T06:14:19.692Z,20641.09
2023-05-25T06:16:47.787Z,20673.63
2023-05-25T06:19:16.091Z,20641.09
2023-05-25T06:21:44.232Z,20653.28
2023-05-25T06:24:13.661Z,20635.00
2023-05-25T06:26:41.788Z,20681.75
2023-05-25T06:29:09.909Z,20651.25
2023-05-25T06:31:38.095Z,20724.44
2023-05-25T06:34:06.399Z,20720.38
2023-05-25T06:36:34.564Z,20767.13
2023-05-25T06:39:02.730Z,20752.91
2023-05-25T06:41:32.211Z,20700.03
2023-05-25T06:44:00.385Z,20691.91
2023-05-25T06:46:28.543Z,20730.53
2023-05-25T06:48:56.713Z,20693.94
2023-05-25T06:51:27.390Z,20712.25
2023-05-25T06:53:57.337Z,20748.84
2023-05-25T06:56:26.280Z,20775.25
2023-05-25T06:58:55.765Z,20876.91
2023-05-25T07:01:24.002Z,20927.72
2023-05-25T07:03:52.167Z,20878.94
2023-05-25T07:06:22.120Z,20874.88
2023-05-25T07:08:50.317Z,20919.59
2023-05-25T07:11:20.711Z,20834.22
2023-05-25T07:13:48.891Z,20750.88
2023-05-25T07:16:18.422Z,20710.22
2023-05-25T07:18:46.603Z,20756.97
2023-05-25T07:21:14.733Z,20795.59
2023-05-25T07:23:42.965Z,20801.69
2023-05-25T07:26:11.131Z,20807.78
2023-05-25T07:28:39.299Z,20811.84
2023-05-25T07:31:07.509Z,20783.41
2023-05-25T07:33:37.121Z,20775.25
2023-05-25T07:36:06.054Z,20767.13
2023-05-25T07:38:34.246Z,20685.81
2023-05-25T07:41:02.371Z,20614.66
2023-05-25T07:43:30.496Z,20590.28
2023-05-25T07:45:58.839Z,20671.59
2023-05-25T07:48:26.963Z,20738.66
2023-05-25T07:50:56.490Z,20795.59
2023-05-25T07:53:24.733Z,20856.56
2023-05-25T07:55:52.985Z,20929.75
2023-05-25T07:58:21.373Z,20915.53
2023-05-25T08:00:50.341Z,20933.81
2023-05-25T08:03:20.946Z,21013.13
2023-05-25T08:05:52.288Z,21027.34
2023-05-25T08:08:22.060Z,20972.47
2023-05-25T08:10:50.182Z,20937.91
2023-05-25T08:13:18.337Z,20901.31
2023-05-25T08:15:46.670Z,20903.34
2023-05-25T08:18:14.843Z,20996.84
2023-05-25T08:20:43.030Z,21049.72
2023-05-25T08:23:11.182Z,21078.16
2023-05-25T08:25:41.087Z,21043.59
2023-05-25T08:28:09.152Z,20958.22
2023-05-25T08:30:37.320Z,20988.72
2023-05-25T08:33:06.859Z,20998.88
2023-05-25T08:35:39.251Z,20921.63
2023-05-25T08:38:07.575Z,20946.03
2023-05-25T08:40:35.722Z,20974.50
2023-05-25T08:43:05.214Z,20988.72
2023-05-25T08:45:36.714Z,20919.59
2023-05-25T08:48:26.870Z,20972.47
2023-05-25T08:50:58.535Z,20905.38
2023-05-25T08:53:29.120Z,21023.28
2023-05-25T08:55:59.930Z,21017.19
2023-05-25T08:58:35.092Z,21051.75
2023-05-25T09:01:09.195Z,21031.41
2023-05-25T09:03:39.178Z,21051.75
2023-05-25T09:06:08.310Z,21043.59
2023-05-25T09:08:39.299Z,21090.38
2023-05-25T09:11:09.947Z,21041.56
2023-05-25T09:13:41.337Z,21104.59
2023-05-25T09:16:11.053Z,21145.25
2023-05-25T09:18:40.132Z,21126.97
2023-05-25T09:21:08.328Z,21114.75
2023-05-25T09:23:38.221Z,21194.06
2023-05-25T09:26:06.621Z,21181.84
2023-05-25T09:28:34.677Z,21177.78
2023-05-25T09:31:04.201Z,21145.25
2023-05-25T09:33:33.237Z,21070.03
2023-05-25T09:36:02.964Z,21045.63
2023-05-25T09:38:32.110Z,21114.75
2023-05-25T09:41:00.569Z,21106.63
2023-05-25T09:43:40.588Z,21063.94
2023-05-25T09:46:12.836Z,21129.00
2023-05-25T09:48:41.315Z,21163.56
2023-05-25T09:51:10.146Z,21137.13
2023-05-25T09:53:38.410Z,21165.59
2023-05-25T09:56:07.544Z,21122.91
2023-05-25T09:58:36.037Z,21129.00
2023-05-25T10:01:04.647Z,21065.97
2023-05-25T10:03:34.224Z,21114.75
2023-05-25T10:06:04.169Z,21159.50
2023-05-25T10:08:33.474Z,21271.31
2023-05-25T10:11:02.346Z,21232.69
2023-05-25T10:13:33.451Z,21255.03
2023-05-25T10:16:03.154Z,21259.13
2023-05-25T10:18:37.592Z,21291.66
2023-05-25T10:21:09.980Z,21314.00
2023-05-25T10:23:46.031Z,21342.47
2023-05-25T10:26:21.367Z,21257.09
2023-05-25T10:28:52.805Z,21234.72
2023-05-25T10:31:22.698Z,21206.25
2023-05-25T10:33:52.771Z,21293.69
2023-05-25T10:36:23.075Z,21279.44
2023-05-25T10:38:53.146Z,21289.59
2023-05-25T10:41:21.896Z,21322.13
2023-05-25T10:43:53.314Z,21285.53
2023-05-25T10:46:22.465Z,21283.50
2023-05-25T10:48:52.826Z,21332.31
2023-05-25T10:51:21.519Z,21285.53
2023-05-25T10:54:01.654Z,21403.47
2023-05-25T10:56:29.798Z,21375.00
2023-05-25T10:58:58.067Z,21362.81
2023-05-25T11:01:26.918Z,21244.88
2023-05-25T11:04:17.503Z,21220.47
2023-05-25T11:07:13.494Z,21212.34
2023-05-25T11:09:58.147Z,21183.88
2023-05-25T11:12:27.870Z,21244.88
2023-05-25T11:15:16.218Z,21293.69
2023-05-25T11:18:01.302Z,21283.50
2023-05-25T11:20:31.885Z,21320.09
2023-05-25T11:23:00.059Z,21287.56
2023-05-25T11:25:41.271Z,21257.09
2023-05-25T11:28:11.583Z,21236.75
2023-05-25T11:30:42.564Z,21236.75
2023-05-25T11:33:11.374Z,21230.66
2023-05-25T11:35:45.403Z,21187.97
2023-05-25T11:38:13.819Z,21212.34
2023-05-25T11:40:41.916Z,21204.22
2023-05-25T11:43:10.748Z,21236.75
2023-05-25T11:45:39.261Z,21299.78
2023-05-25T11:48:08.220Z,21297.75
2023-05-25T11:50:36.451Z,21362.81
2023-05-25T11:53:08.100Z,21326.22
2023-05-25T11:55:40.083Z,21267.25
2023-05-25T11:58:08.213Z,21330.28
2023-05-25T12:00:36.305Z,21354.66
2023-05-25T12:03:05.682Z,21346.53
2023-05-25T12:05:40.665Z,21417.69
2023-05-25T12:08:10.174Z,21415.66
2023-05-25T12:10:51.960Z,21399.41
2023-05-25T12:13:21.339Z,21492.94
2023-05-25T12:15:49.614Z,21529.53
2023-05-25T12:18:18.108Z,21537.66
2023-05-25T12:20:46.600Z,21616.97
2023-05-25T12:23:16.852Z,21519.34
2023-05-25T12:25:51.030Z,21509.19
2023-05-25T12:28:19.538Z,21427.88
2023-05-25T12:30:47.942Z,21452.25
2023-05-25T12:33:16.510Z,21486.81
2023-05-25T12:35:49.624Z,21427.88
2023-05-25T12:38:22.086Z,21413.63
2023-05-25T12:41:07.033Z,21419.72
2023-05-25T12:43:39.930Z,21446.16
2023-05-25T12:46:08.090Z,21438.03
2023-05-25T12:48:36.329Z,21468.53
2023-05-25T12:51:04.688Z,21523.44
2023-05-25T12:53:50.902Z,21501.06
2023-05-25T12:56:19.289Z,21505.13
2023-05-25T12:58:47.509Z,21438.03
2023-05-25T13:01:15.619Z,21395.34
2023-05-25T13:03:43.690Z,21364.84
2023-05-25T13:06:11.750Z,21370.94
2023-05-25T13:08:41.380Z,21377.03
2023-05-25T13:11:09.654Z,21436.00
2023-05-25T13:13:37.928Z,21436.00
2023-05-25T13:16:06.659Z,21350.59
2023-05-25T13:18:34.766Z,21411.59
2023-05-25T13:21:03.050Z,21421.75
2023-05-25T13:23:32.269Z,21438.03
2023-05-25T13:26:01.677Z,21442.09
2023-05-25T13:28:29.771Z,21362.81
2023-05-25T13:30:57.880Z,21395.34
2023-05-25T13:33:25.991Z,21442.09
2023-05-25T13:36:08.369Z,21407.53
2023-05-25T13:38:38.102Z,21407.53
2023-05-25T13:41:07.638Z,21411.59
2023-05-25T13:43:36.056Z,21375.00
2023-05-25T13:46:04.318Z,21444.13
2023-05-25T13:48:32.456Z,21421.75
2023-05-25T13:51:00.573Z,21456.34
2023-05-25T13:53:28.677Z,21462.44
2023-05-25T13:55:56.744Z,21456.34
2023-05-25T13:58:26.262Z,21444.13
2023-05-25T14:00:54.390Z,21448.19
2023-05-25T14:03:22.709Z,21427.88
2023-05-25T14:05:51.304Z,21501.06
2023-05-25T14:08:19.333Z,21515.28
2023-05-25T14:10:47.535Z,21462.44
2023-05-25T14:13:15.892Z,21450.22
2023-05-25T14:15:46.751Z,21387.19
2023-05-25T14:18:15.204Z,21411.59
2023-05-25T14:20:43.366Z,21403.47
2023-05-25T14:23:14.218Z,21395.34
2023-05-25T14:25:48.896Z,21383.13
2023-05-25T14:28:17.025Z,21403.47
2023-05-25T14:30:46.508Z,21379.06
2023-05-25T14:33:17.221Z,21379.06
2023-05-25T14:35:45.680Z,21407.53
2023-05-25T14:38:14.238Z,21460.41
2023-05-25T14:40:42.348Z,21383.13
2023-05-25T14:43:15.916Z,21446.16
2023-05-25T14:45:44.261Z,21460.41
2023-05-25T14:48:16.936Z,21517.31
2023-05-25T14:50:45.783Z,21555.97
2023-05-25T14:53:14.560Z,21541.72
2023-05-25T14:55:42.939Z,21427.88
2023-05-25T14:58:11.869Z,21456.34
2023-05-25T15:00:39.932Z,21527.50
2023-05-25T15:03:08.166Z,21515.28
2023-05-25T15:05:37.770Z,21551.91
2023-05-25T15:08:06.237Z,21645.44
2023-05-25T15:10:34.340Z,21623.06
2023-05-25T15:13:02.442Z,21643.38
2023-05-25T15:15:30.845Z,21645.44
2023-05-25T15:17:58.987Z,21671.84
2023-05-25T15:20:27.167Z,21547.81
2023-05-25T15:22:56.618Z,21553.94
2023-05-25T15:27:59.565Z,21444.13
2023-05-25T15:30:27.811Z,21415.66
2023-05-25T15:32:55.948Z,21356.69
2023-05-25T15:35:31.029Z,21350.59
2023-05-25T15:38:00.877Z,21336.38
2023-05-25T15:40:29.156Z,21311.97
2023-05-25T15:42:57.232Z,21267.25
2023-05-25T15:45:26.171Z,21299.78
2023-05-25T15:47:54.384Z,21283.50
2023-05-25T15:50:22.569Z,21277.41
2023-05-25T15:52:50.730Z,21309.94
2023-05-25T15:55:20.573Z,21314.00
2023-05-25T15:57:48.757Z,21273.34
2023-05-25T16:00:17.893Z,21307.91
2023-05-25T16:02:46.091Z,21295.72
2023-05-25T16:05:14.305Z,21281.47
2023-05-25T16:07:42.505Z,21244.88
2023-05-25T16:10:11.453Z,21250.97
2023-05-25T16:12:41.032Z,21277.41
2023-05-25T16:15:10.545Z,21240.81
2023-05-25T16:17:38.702Z,21287.56
2023-05-25T16:20:09.264Z,21279.44
2023-05-25T16:22:37.360Z,21275.38
2023-05-25T16:25:06.373Z,21240.81
2023-05-25T16:27:34.536Z,21240.81
2023-05-25T16:30:04.224Z,21271.31
2023-05-25T16:32:32.771Z,21232.69
2023-05-25T16:35:01.520Z,21192.03
2023-05-25T16:37:29.620Z,21220.47
2023-05-25T16:39:57.732Z,21175.75
2023-05-25T16:42:26.409Z,21196.09
2023-05-25T16:44:54.448Z,21181.84
2023-05-25T16:47:24.146Z,21236.75
2023-05-25T16:49:52.231Z,21218.44
2023-05-25T16:52:20.349Z,21196.09
2023-05-25T16:54:48.430Z,21228.63
2023-05-25T16:57:16.520Z,21198.13
2023-05-25T16:59:45.571Z,21179.81
2023-05-25T17:02:13.709Z,21135.09
2023-05-25T17:04:43.464Z,21141.19
2023-05-25T17:07:11.592Z,21208.28
2023-05-25T17:09:39.819Z,21177.78
2023-05-25T17:12:09.221Z,21118.84
2023-05-25T17:14:37.384Z,21190.00
2023-05-25T17:17:06.134Z,21114.75
2023-05-25T17:19:34.636Z,21120.88
2023-05-25T17:22:04.231Z,21102.56
2023-05-25T17:24:32.363Z,21090.38
2023-05-25T17:27:01.709Z,21141.19
2023-05-25T17:29:29.840Z,21104.59
2023-05-25T17:31:58.015Z,21151.34
2023-05-25T17:34:26.171Z,21098.50
2023-05-25T17:36:54.293Z,21102.56
2023-05-25T17:39:23.773Z,21088.34
2023-05-25T17:41:52.012Z,21070.03
2023-05-25T17:44:20.191Z,21049.72
2023-05-25T17:46:48.578Z,20992.78
2023-05-25T17:49:16.738Z,21031.41
2023-05-25T17:51:44.850Z,21039.53
2023-05-25T17:54:15.338Z,21015.16
2023-05-25T17:56:44.859Z,20958.22
2023-05-25T17:59:13.251Z,21002.94
2023-05-25T18:01:41.795Z,21000.91
2023-05-25T18:04:10.276Z,21009.03
2023-05-25T18:06:38.535Z,21000.91
2023-05-25T18:09:06.938Z,20988.72
2023-05-25T18:11:36.519Z,20948.06
2023-05-25T18:14:06.237Z,20950.09
2023-05-25T18:16:39.482Z,20917.56
2023-05-25T18:19:09.393Z,20874.88
2023-05-25T18:21:39.190Z,20915.53
2023-05-25T18:24:08.988Z,20889.09
2023-05-25T18:26:37.142Z,20891.13
2023-05-25T18:29:06.675Z,20864.72
2023-05-25T18:31:34.967Z,20842.34
2023-05-25T18:34:03.281Z,20878.94
2023-05-25T18:36:33.038Z,20805.75
2023-05-25T18:39:01.280Z,20777.28
2023-05-25T18:41:29.639Z,20787.47
2023-05-25T18:43:58.219Z,20817.94
2023-05-25T18:46:28.833Z,20779.31
2023-05-25T18:48:57.286Z,20740.69
2023-05-25T18:51:25.882Z,20767.13
2023-05-25T18:53:54.738Z,20777.28
2023-05-25T18:56:22.905Z,20732.56
2023-05-25T18:58:52.100Z,20698.00
2023-05-25T19:01:20.391Z,20718.34
2023-05-25T19:03:49.972Z,20716.31
2023-05-25T19:06:18.266Z,20704.13
2023-05-25T19:08:46.510Z,20691.91
2023-05-25T19:11:15.525Z,20712.25
2023-05-25T19:13:44.124Z,20667.53
2023-05-25T19:16:12.490Z,20665.50
2023-05-25T19:18:40.726Z,20586.22
2023-05-25T19:21:10.320Z,20606.53
2023-05-25T19:23:38.537Z,20602.47
2023-05-25T19:26:06.740Z,20565.88
2023-05-25T19:28:35.061Z,20590.28
2023-05-25T19:31:03.273Z,20624.84
2023-05-25T19:33:31.466Z,20588.25
2023-05-25T19:35:59.642Z,20628.91
2023-05-25T19:38:40.343Z,20582.16
2023-05-25T19:41:09.239Z,20541.50
2023-05-25T19:43:38.236Z,20517.09
2023-05-25T19:46:06.831Z,20543.53
2023-05-25T19:48:35.258Z,20523.19
2023-05-25T19:51:03.454Z,20547.59
2023-05-25T19:53:33.040Z,20541.50
2023-05-25T19:56:03.164Z,20571.97
2023-05-25T19:58:31.529Z,20513.03
2023-05-25T20:01:00.064Z,20533.34
2023-05-25T20:03:28.353Z,20513.03
2023-05-25T20:05:57.778Z,20488.63
2023-05-25T20:08:27.175Z,20506.94
2023-05-25T20:10:56.737Z,20470.34
2023-05-25T20:13:25.045Z,20472.38
2023-05-25T20:15:53.486Z,20484.56
2023-05-25T20:18:23.873Z,20519.13
2023-05-25T20:20:52.437Z,20452.06
2023-05-25T20:23:20.822Z,20492.72
2023-05-25T20:25:49.199Z,20464.25
2023-05-25T20:28:19.573Z,20445.94
2023-05-25T20:30:47.952Z,20466.28
2023-05-25T20:33:16.347Z,20454.09
2023-05-25T20:35:44.688Z,20423.59
2023-05-25T20:38:13.132Z,20435.78
2023-05-25T20:40:41.274Z,20382.94
2023-05-25T20:43:09.413Z,20460.19
2023-05-25T20:45:38.972Z,20437.81
2023-05-25T20:48:07.417Z,20395.13
2023-05-25T20:50:35.590Z,20468.31
2023-05-25T20:53:03.952Z,20403.25
2023-05-25T20:55:32.096Z,20452.06
2023-05-25T20:58:00.989Z,20431.72
2023-05-25T21:00:29.262Z,20443.91
2023-05-25T21:02:59.153Z,20374.81
2023-05-25T21:05:27.340Z,20382.94
2023-05-25T21:07:55.477Z,20382.94
2023-05-25T21:10:23.673Z,20411.41
2023-05-25T21:12:51.984Z,20346.34
2023-05-25T21:15:20.083Z,20358.56
2023-05-25T21:17:48.262Z,20334.16
2023-05-25T21:20:18.051Z,20326.03
2023-05-25T21:22:46.258Z,20326.03
2023-05-25T21:25:14.432Z,20348.38
2023-05-25T21:27:42.744Z,20281.31
2023-05-25T21:30:12.130Z,20315.88
2023-05-25T21:32:40.997Z,20305.69
2023-05-25T21:35:09.288Z,20317.91
2023-05-25T21:37:38.817Z,20311.78
2023-05-25T21:40:08.873Z,20277.25
2023-05-25T21:42:37.260Z,20273.19
2023-05-25T21:45:06.332Z,20273.19
2023-05-25T21:47:34.424Z,20299.59
2023-05-25T21:50:02.671Z,20307.72
2023-05-25T21:52:30.842Z,20309.75
2023-05-25T21:55:00.337Z,20246.75
2023-05-25T21:57:28.483Z,20269.13
2023-05-25T21:59:56.568Z,20244.72
2023-05-25T22:02:24.852Z,20244.72
2023-05-25T22:04:53.074Z,20246.75
2023-05-25T22:07:21.272Z,20220.34
2023-05-25T22:09:49.409Z,20242.69
2023-05-25T22:12:20.636Z,20197.97
2023-05-25T22:14:49.184Z,20210.16
2023-05-25T22:17:18.879Z,20208.13
2023-05-25T22:19:55.243Z,20195.94
2023-05-25T22:22:23.910Z,20208.13
2023-05-25T22:24:52.233Z,20195.94
2023-05-25T22:27:21.903Z,20179.69
2023-05-25T22:29:50.243Z,20224.41
2023-05-25T22:32:18.365Z,20210.16
2023-05-25T22:34:47.241Z,20236.59
2023-05-25T22:37:17.233Z,20218.31
2023-05-25T22:39:45.868Z,20208.13
2023-05-25T22:42:14.027Z,20163.41
2023-05-25T22:44:43.554Z,20175.63
2023-05-25T22:47:11.755Z,20139.03
2023-05-25T22:49:43.002Z,20179.69
2023-05-25T22:52:13.274Z,20151.22
2023-05-25T22:54:41.403Z,20132.94
2023-05-25T22:57:11.113Z,20132.94
2023-05-25T22:59:39.230Z,20137.00
2023-05-25T23:02:08.920Z,20120.75
2023-05-25T23:04:37.354Z,20147.16
2023-05-25T23:07:06.051Z,20118.69
2023-05-25T23:09:34.229Z,20122.78
2023-05-25T23:12:02.707Z,20128.88
2023-05-25T23:14:31.340Z,20134.97
2023-05-25T23:16:59.468Z,20116.66
2023-05-25T23:19:29.052Z,20112.59
2023-05-25T23:21:58.561Z,20090.25
2023-05-25T23:24:26.963Z,20080.09
2023-05-25T23:26:55.064Z,20055.69
2023-05-25T23:29:23.258Z,20139.03
2023-05-25T23:31:51.461Z,20088.22
2023-05-25T23:34:19.890Z,20155.28
2023-05-25T23:36:49.390Z,20155.28
2023-05-25T23:39:17.819Z,20132.94
2023-05-25T23:41:45.946Z,20098.38
2023-05-25T23:44:14.282Z,20108.53
2023-05-25T23:46:42.670Z,20106.50
2023-05-25T23:49:10.840Z,20084.16
2023-05-25T23:51:38.989Z,20094.31
2023-05-25T23:54:08.744Z,20090.25
2023-05-25T23:56:36.865Z,20094.31
2023-05-25T23:59:05.262Z,20065.84
